Time;durP1;ratioP1;P1;durP2;ratioP2;P2;SDS_P1;SDS_P2;PMS_P1;PMS_P2;Temp;Humidity;BMP_temperature;BMP_pressure;BME280_temperature;BME280_humidity;BME280_pressure;Samples;Min_cycle;Max_cycle;Signal;HPM_P1;HPM_P2
2022/04/06 00:00:40;;;;;;;7.20;2.20;;;13.40;99.90;;;;;;4994324;28;20210;-74
2022/04/06 00:03:06;;;;;;;5.47;2.20;;;13.40;99.90;;;;;;4994385;28;20205;-74
2022/04/06 00:05:32;;;;;;;4.57;1.80;;;13.40;99.90;;;;;;4992945;28;20557;-74
2022/04/06 00:07:57;;;;;;;5.00;2.10;;;13.30;99.90;;;;;;4993974;28;20224;-75
2022/04/06 00:10:24;;;;;;;6.60;2.17;;;13.30;99.90;;;;;;4994280;28;20500;-74
2022/04/06 00:12:50;;;;;;;5.95;3.10;;;13.30;99.90;;;;;;4992595;28;20171;-75
2022/04/06 00:15:16;;;;;;;4.90;2.17;;;13.30;99.90;;;;;;4994323;28;20198;-74
2022/04/06 00:17:42;;;;;;;3.80;1.50;;;13.30;99.90;;;;;;5008894;28;20182;-74
2022/04/06 00:20:09;;;;;;;5.03;2.00;;;13.30;99.90;;;;;;4994055;28;20170;-74
2022/04/06 00:22:34;;;;;;;4.20;1.85;;;13.30;99.90;;;;;;4993784;28;20570;-74
2022/04/06 00:25:00;;;;;;;4.10;1.90;;;13.20;99.90;;;;;;4993705;28;20225;-74
2022/04/06 00:27:26;;;;;;;4.93;2.30;;;13.20;99.90;;;;;;4993730;28;20171;-74
2022/04/06 00:29:52;;;;;;;7.23;1.83;;;13.20;99.90;;;;;;4992661;28;20522;-74
2022/04/06 00:32:18;;;;;;;4.97;1.60;;;13.20;99.90;;;;;;4993762;28;20163;-74
2022/04/06 00:37:28;;;;;;;5.60;1.60;;;13.30;99.90;;;;;;4992844;28;20171;-74
2022/04/06 00:39:55;;;;;;;3.50;1.60;;;13.20;99.90;;;;;;4996124;28;20177;-74
2022/04/06 00:42:22;;;;;;;4.82;2.05;;;13.20;99.90;;;;;;4974668;28;21139;-74
2022/04/06 00:44:47;;;;;;;4.60;2.00;;;13.20;99.90;;;;;;4986561;28;20203;-75
2022/04/06 00:47:13;;;;;;;5.10;1.57;;;13.20;99.90;;;;;;5012840;28;20175;-74
2022/04/06 00:49:39;;;;;;;3.93;1.40;;;13.20;99.90;;;;;;5009827;28;20585;-75
2022/04/06 00:52:06;;;;;;;5.73;1.67;;;13.20;99.90;;;;;;5013163;28;20193;-74
2022/04/06 00:54:34;;;;;;;6.75;1.77;;;13.20;99.90;;;;;;5010389;28;20601;-74
2022/04/06 00:57:00;;;;;;;5.55;2.10;;;13.20;99.90;;;;;;5010833;28;20190;-74
2022/04/06 00:59:29;;;;;;;4.45;1.60;;;13.20;99.90;;;;;;5005121;28;20174;-75
2022/04/06 01:01:56;;;;;;;3.30;1.17;;;13.20;99.90;;;;;;5011153;28;20177;-74
2022/04/06 01:04:22;;;;;;;5.50;1.75;;;13.10;99.90;;;;;;5011998;28;20194;-74
2022/04/06 01:06:49;;;;;;;4.30;1.40;;;13.10;99.90;;;;;;5003890;28;20194;-74
2022/04/06 01:09:16;;;;;;;6.45;1.95;;;13.10;99.90;;;;;;5006855;28;20612;-75
2022/04/06 01:11:44;;;;;;;5.90;1.30;;;13.10;99.90;;;;;;5004446;28;20174;-74
2022/04/06 01:14:11;;;;;;;5.88;1.88;;;13.10;99.90;;;;;;5012934;28;20166;-74
2022/04/06 01:16:38;;;;;;;7.82;1.60;;;13.10;99.90;;;;;;5012582;28;20209;-74
2022/04/06 01:19:04;;;;;;;5.03;1.30;;;13.10;99.90;;;;;;5012496;28;20171;-74
2022/04/06 01:21:29;;;;;;;3.40;1.57;;;13.10;99.90;;;;;;5007135;28;20163;-74
2022/04/06 01:23:55;;;;;;;5.40;1.60;;;13.10;99.90;;;;;;5011156;28;20190;-74
2022/04/06 01:26:21;;;;;;;4.40;1.30;;;13.10;99.90;;;;;;5012487;28;20288;-74
2022/04/06 01:28:47;;;;;;;5.63;1.60;;;13.10;99.90;;;;;;5012216;28;20206;-74
2022/04/06 01:31:13;;;;;;;4.47;1.57;;;13.00;99.90;;;;;;5011471;28;20173;-75
2022/04/06 01:33:38;;;;;;;3.17;1.50;;;13.10;99.90;;;;;;5007080;28;20635;-75
2022/04/06 01:36:04;;;;;;;3.87;1.63;;;13.00;99.90;;;;;;5004462;28;20637;-75
2022/04/06 01:38:30;;;;;;;5.03;1.60;;;13.10;99.90;;;;;;4987768;28;20236;-74
2022/04/06 01:40:56;;;;;;;3.03;1.20;;;13.00;99.90;;;;;;5011947;28;20931;-75
2022/04/06 01:43:22;;;;;;;4.70;1.60;;;13.00;99.90;;;;;;5007010;28;20541;-75
2022/04/06 01:45:48;;;;;;;4.03;2.15;;;13.00;99.90;;;;;;5003995;28;20839;-74
2022/04/06 01:48:15;;;;;;;3.80;1.90;;;13.00;99.90;;;;;;4991765;28;20178;-75
2022/04/06 01:53:27;;;;;;;3.17;1.10;;;13.00;99.90;;;;;;5001959;28;20568;-74
2022/04/06 01:55:54;;;;;;;5.00;1.50;;;13.00;99.90;;;;;;5008740;28;20186;-75
2022/04/06 01:58:20;;;;;;;5.22;1.60;;;13.00;99.90;;;;;;5005848;28;20170;-75
2022/04/06 02:00:47;;;;;;;5.83;1.40;;;13.00;99.90;;;;;;5010426;28;20240;-75
2022/04/06 02:03:13;;;;;;;5.43;1.70;;;13.00;99.90;;;;;;5012115;28;20902;-75
2022/04/06 02:05:38;;;;;;;3.10;2.10;;;13.00;99.90;;;;;;5006960;28;20209;-75
2022/04/06 02:08:04;;;;;;;6.30;1.50;;;13.00;99.90;;;;;;5011426;28;20632;-75
2022/04/06 02:10:30;;;;;;;3.97;1.47;;;13.00;99.90;;;;;;5002403;28;20303;-75
2022/04/06 02:12:58;;;;;;;3.00;1.30;;;13.00;99.90;;;;;;5008133;28;20908;-74
2022/04/06 02:15:25;;;;;;;5.57;1.80;;;13.00;99.90;;;;;;5010645;28;20194;-75
2022/04/06 02:17:51;;;;;;;5.43;1.42;;;13.00;99.90;;;;;;5011616;28;20179;-75
2022/04/06 02:20:17;;;;;;;3.03;1.20;;;12.90;99.90;;;;;;5015542;28;20227;-75
2022/04/06 02:22:43;;;;;;;5.10;1.20;;;12.90;99.90;;;;;;5026338;28;20190;-74
2022/04/06 02:25:10;;;;;;;4.85;1.40;;;12.90;99.90;;;;;;5016669;28;20213;-74
2022/04/06 02:27:50;;;;;;;3.10;1.48;;;12.90;99.90;;;;;;5011406;28;20249;-74
2022/04/06 02:30:17;;;;;;;4.43;1.50;;;12.90;99.90;;;;;;5010610;28;20228;-74
2022/04/06 02:32:43;;;;;;;4.65;1.73;;;12.90;99.90;;;;;;5011844;28;20167;-74
2022/04/06 02:35:10;;;;;;;3.77;1.20;;;12.90;99.90;;;;;;5003145;28;20191;-75
2022/04/06 02:37:37;;;;;;;3.03;1.23;;;12.90;99.90;;;;;;4991793;28;20583;-75
2022/04/06 02:40:04;;;;;;;5.35;1.73;;;12.90;99.90;;;;;;4992043;28;20241;-75
2022/04/06 02:42:30;;;;;;;7.15;2.17;;;12.80;99.90;;;;;;4992161;28;20530;-75
2022/04/06 02:44:56;;;;;;;5.68;1.55;;;12.90;99.90;;;;;;4991905;28;20574;-74
2022/04/06 02:47:22;;;;;;;4.57;1.60;;;12.90;99.90;;;;;;4991915;28;20206;-75
2022/04/06 02:49:47;;;;;;;3.10;1.27;;;12.90;99.90;;;;;;4991834;28;20163;-75
2022/04/06 02:52:13;;;;;;;4.90;1.40;;;12.90;99.90;;;;;;4992048;28;20163;-75
2022/04/06 02:54:39;;;;;;;5.70;1.60;;;12.90;99.90;;;;;;4990546;28;20167;-75
2022/04/06 02:57:06;;;;;;;3.90;1.67;;;12.90;99.90;;;;;;4991661;28;20168;-75
2022/04/06 02:59:31;;;;;;;5.22;2.33;;;12.90;99.90;;;;;;4992115;28;20175;-75
2022/04/06 03:01:57;;;;;;;4.63;1.60;;;12.80;99.90;;;;;;5005380;28;20240;-75
2022/04/06 03:04:23;;;;;;;3.63;1.57;;;12.80;99.90;;;;;;5014906;28;20728;-75
2022/04/06 03:06:49;;;;;;;8.97;2.27;;;12.80;99.90;;;;;;5014463;28;20170;-75
2022/04/06 03:09:15;;;;;;;4.00;1.67;;;12.80;99.90;;;;;;5001326;28;20175;-75
2022/04/06 03:11:41;;;;;;;3.35;1.42;;;12.80;99.90;;;;;;4996858;28;20175;-75
2022/04/06 03:14:07;;;;;;;4.10;1.40;;;12.80;99.90;;;;;;5014557;28;20168;-75
2022/04/06 03:16:33;;;;;;;4.67;1.43;;;12.80;99.90;;;;;;5013750;28;20260;-75
2022/04/06 03:18:58;;;;;;;3.50;1.50;;;12.80;99.90;;;;;;5014787;28;20225;-74
2022/04/06 03:21:24;;;;;;;4.93;1.53;;;12.80;99.90;;;;;;5013553;28;20674;-72
2022/04/06 03:23:50;;;;;;;4.13;1.40;;;12.80;99.90;;;;;;5007220;28;20175;-73
2022/04/06 03:26:15;;;;;;;7.00;2.23;;;12.80;99.90;;;;;;5014207;28;20216;-73
2022/04/06 03:28:41;;;;;;;3.80;1.30;;;12.80;99.90;;;;;;5006817;28;20178;-73
2022/04/06 03:31:07;;;;;;;7.70;2.17;;;12.80;99.90;;;;;;5008672;28;20174;-73
2022/04/06 03:33:34;;;;;;;4.78;1.60;;;12.80;99.90;;;;;;5014277;28;20578;-73
2022/04/06 03:36:00;;;;;;;5.45;1.40;;;12.80;99.90;;;;;;5008162;28;20186;-73
2022/04/06 03:38:26;;;;;;;3.33;1.60;;;12.80;99.90;;;;;;5014316;28;20166;-74
2022/04/06 03:40:52;;;;;;;3.80;1.10;;;12.80;99.90;;;;;;5014417;28;20220;-74
2022/04/06 03:43:18;;;;;;;5.97;1.47;;;12.80;99.90;;;;;;5003034;28;20597;-73
2022/04/06 03:45:44;;;;;;;3.93;1.33;;;12.80;99.90;;;;;;5012156;28;20213;-74
2022/04/06 03:48:09;;;;;;;4.00;1.27;;;12.80;99.90;;;;;;5008526;28;20590;-73
2022/04/06 03:50:35;;;;;;;5.67;1.43;;;12.80;99.90;;;;;;5009963;28;20174;-73
2022/04/06 03:53:01;;;;;;;3.77;1.50;;;12.70;99.90;;;;;;5008926;28;20214;-73
2022/04/06 03:55:27;;;;;;;2.60;1.30;;;12.80;99.90;;;;;;5013844;28;21073;-74
2022/04/06 03:57:52;;;;;;;4.53;1.40;;;12.80;99.90;;;;;;5009634;28;20647;-73
2022/04/06 04:00:18;;;;;;;5.70;1.53;;;12.70;99.90;;;;;;5007133;28;20210;-73
2022/04/06 04:02:45;;;;;;;4.93;1.35;;;12.80;99.90;;;;;;5002729;28;20257;-74
2022/04/06 04:05:12;;;;;;;5.78;1.35;;;12.80;99.90;;;;;;5008739;28;20213;-74
2022/04/06 04:07:38;;;;;;;4.53;1.40;;;12.80;99.90;;;;;;5013872;28;20166;-73
2022/04/06 04:10:10;;;;;;;3.90;1.63;;;12.80;99.90;;;;;;5013889;28;20181;-74
2022/04/06 04:12:38;;;;;;;7.78;1.90;;;12.70;99.90;;;;;;5011241;28;20313;-73
2022/04/06 04:15:05;;;;;;;4.40;1.65;;;12.80;99.90;;;;;;5013555;28;20226;-73
2022/04/06 04:17:31;;;;;;;5.93;1.40;;;12.70;99.90;;;;;;5013642;28;20175;-74
2022/04/06 04:19:57;;;;;;;2.50;1.20;;;12.80;99.90;;;;;;5012475;28;20189;-73
2022/04/06 04:22:23;;;;;;;3.40;1.40;;;12.80;99.90;;;;;;5013701;28;20574;-74
2022/04/06 04:24:49;;;;;;;4.72;1.60;;;12.80;99.90;;;;;;5012417;28;20202;-73
2022/04/06 04:27:15;;;;;;;9.00;1.27;;;12.80;99.90;;;;;;5013264;28;20258;-74
2022/04/06 04:29:41;;;;;;;4.35;1.30;;;12.80;99.90;;;;;;5012342;28;20531;-74
2022/04/06 04:32:07;;;;;;;5.00;1.50;;;12.80;99.90;;;;;;5013563;28;20172;-73
2022/04/06 04:34:33;;;;;;;4.05;1.70;;;12.70;99.90;;;;;;5012426;28;21025;-74
2022/04/06 04:36:59;;;;;;;4.60;1.40;;;12.80;99.90;;;;;;5013703;28;20170;-74
2022/04/06 04:39:25;;;;;;;4.47;1.70;;;12.70;99.90;;;;;;5013786;28;20171;-73
2022/04/06 04:41:51;;;;;;;3.78;1.73;;;12.70;99.90;;;;;;5012242;28;20569;-74
2022/04/06 04:44:17;;;;;;;4.93;1.33;;;12.70;99.90;;;;;;5013265;28;20562;-74
2022/04/06 04:46:42;;;;;;;4.43;1.83;;;12.70;99.90;;;;;;5013096;28;20194;-74
2022/04/06 04:49:08;;;;;;;2.80;1.73;;;12.70;99.90;;;;;;5012794;28;20175;-74
2022/04/06 04:51:34;;;;;;;6.07;2.30;;;12.70;99.90;;;;;;5013127;28;20173;-74
2022/04/06 04:54:00;;;;;;;5.90;2.20;;;12.70;99.90;;;;;;5013065;28;20178;-74
2022/04/06 04:56:28;;;;;;;3.40;1.65;;;12.70;99.90;;;;;;5013049;28;20197;-73
2022/04/06 04:58:54;;;;;;;3.75;1.33;;;12.70;99.90;;;;;;5013083;28;20739;-74
2022/04/06 05:01:20;;;;;;;4.47;2.05;;;12.70;99.90;;;;;;5013058;28;20257;-75
2022/04/06 05:03:47;;;;;;;6.87;1.70;;;12.70;99.90;;;;;;5013058;28;20324;-75
2022/04/06 05:06:13;;;;;;;5.22;1.85;;;12.70;99.90;;;;;;5012797;28;20273;-74
2022/04/06 05:08:39;;;;;;;5.28;2.10;;;12.70;99.90;;;;;;5012849;28;20194;-75
2022/04/06 05:11:04;;;;;;;3.70;1.90;;;12.70;99.90;;;;;;5012381;28;20542;-75
2022/04/06 05:13:31;;;;;;;2.70;1.20;;;12.70;99.90;;;;;;5012457;28;20563;-74
2022/04/06 05:15:57;;;;;;;2.58;1.30;;;12.70;99.90;;;;;;5012513;28;20547;-75
2022/04/06 05:18:23;;;;;;;3.55;1.30;;;12.70;99.90;;;;;;5012532;28;20190;-75
2022/04/06 05:20:49;;;;;;;3.90;1.87;;;12.70;99.90;;;;;;5012912;28;20174;-75
2022/04/06 05:23:15;;;;;;;4.15;1.75;;;12.70;99.90;;;;;;5012727;28;20162;-75
2022/04/06 05:25:41;;;;;;;4.80;1.40;;;12.70;99.90;;;;;;5012287;28;20205;-75
2022/04/06 05:28:08;;;;;;;3.53;1.10;;;12.70;99.90;;;;;;5003516;28;20783;-75
2022/04/06 05:30:35;;;;;;;5.43;1.60;;;12.70;99.90;;;;;;5011607;28;20573;-75
2022/04/06 05:33:00;;;;;;;5.18;1.75;;;12.80;99.90;;;;;;5012675;28;20185;-75
2022/04/06 05:35:27;;;;;;;4.23;1.10;;;12.80;99.90;;;;;;5012482;28;20186;-76
2022/04/06 05:37:55;;;;;;;5.57;1.40;;;12.80;99.90;;;;;;5012336;28;20596;-75
2022/04/06 05:40:21;;;;;;;4.55;1.55;;;12.80;99.90;;;;;;5010955;28;20584;-76
2022/04/06 05:42:47;;;;;;;3.40;1.10;;;12.80;99.90;;;;;;5011948;28;20528;-75
2022/04/06 05:45:13;;;;;;;4.40;1.83;;;12.80;99.90;;;;;;5011017;28;20643;-75
2022/04/06 05:47:39;;;;;;;3.88;1.30;;;12.80;99.90;;;;;;5011993;28;20162;-75
2022/04/06 05:50:07;;;;;;;5.30;1.13;;;12.80;99.90;;;;;;5011985;28;20532;-75
2022/04/06 05:52:34;;;;;;;5.70;1.30;;;12.90;99.90;;;;;;5005424;28;20692;-75
2022/04/06 05:54:59;;;;;;;6.72;1.40;;;12.90;99.90;;;;;;5011353;28;20268;-75
2022/04/06 05:57:28;;;;;;;5.30;1.63;;;12.90;99.90;;;;;;5011887;28;20639;-76
2022/04/06 05:59:54;;;;;;;2.35;1.10;;;12.90;99.90;;;;;;5010216;28;21131;-76
2022/04/06 06:02:23;;;;;;;7.30;1.43;;;12.90;99.90;;;;;;5011385;28;20300;-74
2022/04/06 06:04:49;;;;;;;4.43;1.30;;;12.90;99.90;;;;;;5011123;28;20202;-75
2022/04/06 06:07:15;;;;;;;6.47;1.40;;;12.90;99.90;;;;;;5002661;28;20654;-76
2022/04/06 06:09:40;;;;;;;2.80;0.80;;;13.00;99.90;;;;;;5010289;28;20989;-75
2022/04/06 06:12:06;;;;;;;4.00;1.00;;;13.00;99.90;;;;;;5009187;28;20170;-75
2022/04/06 06:14:32;;;;;;;5.25;1.55;;;13.00;99.90;;;;;;5003977;28;20178;-74
2022/04/06 06:16:58;;;;;;;3.23;1.23;;;13.00;99.90;;;;;;5002639;28;20205;-73
2022/04/06 06:19:24;;;;;;;2.45;1.20;;;13.10;99.90;;;;;;5005811;28;20850;-73
2022/04/06 06:21:50;;;;;;;5.32;1.20;;;13.10;99.90;;;;;;5011189;28;20181;-73
2022/04/06 06:24:16;;;;;;;5.47;1.10;;;13.10;99.90;;;;;;5011357;28;20585;-73
2022/04/06 06:26:42;;;;;;;4.20;1.00;;;13.10;99.90;;;;;;5010194;28;20194;-73
2022/04/06 06:29:08;;;;;;;4.25;1.17;;;13.10;99.90;;;;;;4989104;28;20734;-74
2022/04/06 06:31:35;;;;;;;3.88;1.00;;;13.10;99.90;;;;;;4986475;28;20179;-74
2022/04/06 06:34:01;;;;;;;4.55;1.10;;;13.20;99.90;;;;;;5005033;28;20170;-74
2022/04/06 06:36:27;;;;;;;3.93;1.50;;;13.20;99.90;;;;;;5011384;28;20193;-74
2022/04/06 06:38:54;;;;;;;3.15;1.05;;;13.20;99.90;;;;;;5002242;28;20185;-74
2022/04/06 06:41:20;;;;;;;3.17;1.10;;;13.20;99.90;;;;;;5015530;28;20184;-74
2022/04/06 06:43:48;;;;;;;2.95;0.98;;;13.20;99.90;;;;;;5015645;28;20259;-74
2022/04/06 06:46:18;;;;;;;2.25;1.00;;;13.20;99.90;;;;;;5015710;28;20210;-74
2022/04/06 06:48:45;;;;;;;2.47;0.88;;;13.30;99.90;;;;;;5015695;28;20178;-74
2022/04/06 06:51:12;;;;;;;2.67;0.90;;;13.30;99.90;;;;;;5016611;28;20541;-74
2022/04/06 06:53:38;;;;;;;1.63;0.70;;;13.30;99.90;;;;;;5016491;28;20158;-74
2022/04/06 06:56:04;;;;;;;3.30;1.20;;;13.30;99.90;;;;;;5016906;28;20666;-73
2022/04/06 06:58:30;;;;;;;3.38;0.90;;;13.30;99.90;;;;;;5016873;28;20175;-73
2022/04/06 07:00:55;;;;;;;8.70;0.90;;;13.40;99.90;;;;;;5017665;28;20173;-73
2022/04/06 07:03:21;;;;;;;3.23;1.30;;;13.40;99.90;;;;;;5020691;28;20225;-73
2022/04/06 07:05:48;;;;;;;3.20;1.13;;;13.40;99.90;;;;;;5023592;28;20640;-73
2022/04/06 07:08:14;;;;;;;5.45;1.10;;;13.40;99.90;;;;;;5029030;28;20615;-73
2022/04/06 07:10:44;;;;;;;3.45;1.13;;;13.40;99.90;;;;;;5026417;28;20162;-73
2022/04/06 07:13:12;;;;;;;3.28;0.88;;;13.40;99.90;;;;;;5019297;28;20155;-73
2022/04/06 07:15:39;;;;;;;2.78;1.27;;;13.40;99.90;;;;;;5015436;28;20187;-73
2022/04/06 07:18:07;;;;;;;2.67;0.98;;;13.40;99.90;;;;;;5009071;28;20225;-73
2022/04/06 07:20:35;;;;;;;3.25;1.38;;;13.40;99.90;;;;;;4994060;28;20202;-73
2022/04/06 07:23:02;;;;;;;4.88;0.90;;;13.50;99.90;;;;;;4999334;28;20254;-73
2022/04/06 07:25:28;;;;;;;2.03;0.77;;;13.50;99.90;;;;;;5004844;28;20217;-73
2022/04/06 07:27:54;;;;;;;2.27;0.80;;;13.50;99.90;;;;;;4997765;28;20174;-73
2022/04/06 07:30:19;;;;;;;1.60;0.77;;;13.50;99.90;;;;;;4987711;28;20224;-73
2022/04/06 07:32:45;;;;;;;3.73;1.00;;;13.50;99.90;;;;;;4995289;28;20578;-73
2022/04/06 07:35:11;;;;;;;2.08;0.70;;;13.50;99.90;;;;;;4993601;28;20727;-74
2022/04/06 07:37:39;;;;;;;1.97;0.77;;;13.60;99.90;;;;;;4994728;28;20262;-74
2022/04/06 07:40:07;;;;;;;2.92;0.80;;;13.60;99.90;;;;;;4994796;28;20570;-75
2022/04/06 07:42:35;;;;;;;2.72;0.80;;;13.60;99.90;;;;;;5038834;23;20209;-76
2022/04/06 07:45:06;;;;;;;3.50;0.75;;;13.60;99.90;;;;;;5035197;28;20212;-76
2022/04/06 07:47:33;;;;;;;3.75;0.80;;;13.60;99.90;;;;;;5033504;28;20178;-76
2022/04/06 07:50:03;;;;;;;3.00;0.90;;;13.60;99.90;;;;;;5033082;28;20189;-76
2022/04/06 07:52:36;;;;;;;2.60;0.90;;;13.60;99.90;;;;;;5001932;28;20280;-78
2022/04/06 07:55:04;;;;;;;1.50;0.70;;;13.60;99.90;;;;;;5044996;28;21050;-78
2022/04/06 07:57:30;;;;;;;3.53;0.85;;;13.80;99.90;;;;;;5048033;28;20187;-77
2022/04/06 07:59:57;;;;;;;1.97;0.70;;;13.80;99.90;;;;;;5040994;28;20170;-77
2022/04/06 08:02:23;;;;;;;4.90;0.87;;;13.80;99.90;;;;;;5024715;28;20193;-77
2022/04/06 08:04:50;;;;;;;4.20;0.97;;;13.90;99.90;;;;;;5044850;28;20650;-77
2022/04/06 08:07:16;;;;;;;3.70;0.70;;;13.90;99.90;;;;;;5033938;28;20700;-76
2022/04/06 08:09:42;;;;;;;2.07;0.70;;;14.00;99.90;;;;;;5030652;28;20170;-75
2022/04/06 08:12:08;;;;;;;1.50;0.70;;;14.00;99.90;;;;;;5054941;28;20622;-79
2022/04/06 08:14:34;;;;;;;2.33;0.70;;;14.00;99.90;;;;;;5063053;28;20348;-80
2022/04/06 08:16:59;;;;;;;3.97;1.30;;;14.00;99.90;;;;;;5059537;28;20168;-80
2022/04/06 08:19:26;;;;;;;3.37;1.03;;;14.10;99.90;;;;;;5047900;28;20165;-80
2022/04/06 08:21:53;;;;;;;3.53;1.20;;;14.10;99.90;;;;;;5067484;28;20193;-80
2022/04/06 08:24:19;;;;;;;2.53;0.90;;;14.10;99.90;;;;;;5051655;28;20216;-81
2022/04/06 08:26:46;;;;;;;2.42;1.20;;;14.10;99.90;;;;;;5050161;28;20204;-80
2022/04/06 08:29:12;;;;;;;5.72;2.25;;;14.10;99.90;;;;;;5040914;28;20257;-80
2022/04/06 08:31:38;;;;;;;3.70;2.10;;;14.10;99.90;;;;;;5040310;28;20186;-81
2022/04/06 08:34:06;;;;;;;4.30;1.88;;;14.10;99.90;;;;;;5041050;28;20201;-81
2022/04/06 08:36:32;;;;;;;3.00;1.25;;;14.10;99.90;;;;;;5049862;28;20224;-81
2022/04/06 08:38:59;;;;;;;2.50;1.08;;;14.10;99.90;;;;;;5050900;28;20194;-81
2022/04/06 08:41:26;;;;;;;3.75;0.95;;;14.10;99.90;;;;;;5037958;28;20187;-80
2022/04/06 08:43:53;;;;;;;2.95;1.20;;;14.10;99.90;;;;;;5034440;28;20188;-82
2022/04/06 08:46:20;;;;;;;2.87;1.00;;;14.10;99.90;;;;;;5039123;28;20166;-82
2022/04/06 08:48:48;;;;;;;3.40;1.00;;;14.20;99.90;;;;;;5044130;28;20669;-82
2022/04/06 08:51:16;;;;;;;4.18;0.80;;;14.20;99.90;;;;;;5037495;28;20588;-80
2022/04/06 08:53:43;;;;;;;2.90;1.67;;;14.20;99.90;;;;;;5039526;28;20162;-80
2022/04/06 08:56:12;;;;;;;2.93;1.00;;;14.20;99.90;;;;;;5043081;28;20576;-80
2022/04/06 08:58:38;;;;;;;3.70;1.10;;;14.20;99.90;;;;;;5052529;28;20584;-80
2022/04/06 09:01:04;;;;;;;3.97;0.97;;;14.20;99.90;;;;;;5048971;28;20624;-81
2022/04/06 09:03:30;;;;;;;3.70;0.70;;;14.20;99.90;;;;;;5048040;28;20569;-81
2022/04/06 09:06:00;;;;;;;4.33;1.10;;;14.20;99.90;;;;;;5036396;28;20658;-77
2022/04/06 09:08:42;;;;;;;3.27;0.83;;;14.20;99.90;;;;;;5041202;28;20192;-75
2022/04/06 09:11:08;;;;;;;1.80;0.70;;;14.10;99.90;;;;;;5012238;28;20577;-76
2022/04/06 09:13:34;;;;;;;4.70;0.80;;;14.20;99.90;;;;;;5039005;28;20569;-75
2022/04/06 09:16:00;;;;;;;4.65;1.13;;;14.10;99.90;;;;;;5052392;28;20187;-75
2022/04/06 09:18:34;;;;;;;2.10;1.05;;;14.20;99.90;;;;;;5036423;28;20191;-75
2022/04/06 09:21:01;;;;;;;2.43;0.80;;;14.20;99.90;;;;;;5039034;28;20171;-75
2022/04/06 09:23:30;;;;;;;3.00;0.80;;;14.20;99.90;;;;;;5047784;28;20564;-76
2022/04/06 09:26:03;;;;;;;6.17;1.37;;;14.20;99.90;;;;;;5049175;28;21119;-76
2022/04/06 09:28:30;;;;;;;4.70;0.90;;;14.30;99.90;;;;;;5040069;28;21143;-75
2022/04/06 09:30:55;;;;;;;2.43;1.10;;;14.30;99.90;;;;;;5043124;28;20607;-75
2022/04/06 09:33:21;;;;;;;2.43;0.70;;;14.50;99.90;;;;;;5040609;28;21182;-75
2022/04/06 09:35:48;;;;;;;3.93;0.80;;;14.60;99.90;;;;;;5049981;28;20173;-76
2022/04/06 09:38:27;;;;;;;1.73;0.60;;;14.90;99.90;;;;;;5051065;28;21082;-75
2022/04/06 09:41:04;;;;;;;1.87;0.60;;;15.20;99.90;;;;;;5052729;28;20571;-76
2022/04/06 09:43:32;;;;;;;2.57;0.80;;;15.70;99.90;;;;;;5051458;28;20598;-75
2022/04/06 09:49:13;;;;;;;1.70;0.50;;;16.60;99.90;;;;;;5051750;28;20562;-76
2022/04/06 09:51:44;;;;;;;2.63;0.70;;;17.00;99.90;;;;;;5041585;28;20651;-75
2022/04/06 09:54:13;;;;;;;2.70;0.83;;;17.40;99.90;;;;;;5040745;28;20599;-76
2022/04/06 09:56:40;;;;;;;2.57;0.50;;;17.70;99.90;;;;;;5032237;28;20577;-76
2022/04/06 09:59:08;;;;;;;4.40;0.73;;;18.00;99.90;;;;;;5031529;28;20655;-76
2022/04/06 10:01:35;;;;;;;1.40;0.70;;;18.20;99.90;;;;;;5042548;28;20611;-76
2022/04/06 10:04:07;;;;;;;5.93;0.90;;;18.40;99.90;;;;;;5038863;28;20592;-76
2022/04/06 10:06:36;;;;;;;4.03;0.90;;;18.50;99.90;;;;;;5031076;28;20635;-75
2022/04/06 10:09:04;;;;;;;2.07;0.60;;;18.50;99.90;;;;;;5030215;28;20609;-75
2022/04/06 10:11:32;;;;;;;1.97;0.50;;;18.60;99.90;;;;;;5034475;28;20616;-76
2022/04/06 10:14:00;;;;;;;3.30;0.60;;;18.90;99.90;;;;;;5030123;28;20743;-75
2022/04/06 10:16:27;;;;;;;2.90;0.60;;;19.20;99.90;;;;;;5030161;28;20603;-76
2022/04/06 10:18:54;;;;;;;2.03;0.70;;;19.70;99.90;;;;;;5030196;28;20663;-76
2022/04/06 10:21:35;;;;;;;6.53;1.30;;;19.80;99.90;;;;;;5031265;28;20607;-75
2022/04/06 10:24:39;;;;;;;1.30;0.60;;;19.90;99.90;;;;;;5029892;28;20852;-75
2022/04/06 10:27:21;;;;;;;2.70;0.63;;;20.00;99.90;;;;;;5021904;28;20611;-75
2022/04/06 10:30:06;;;;;;;3.67;0.70;;;20.00;99.90;;;;;;5024839;28;21419;-76
2022/04/06 10:32:39;;;;;;;1.60;0.60;;;19.90;99.90;;;;;;5012961;28;20609;-76
2022/04/06 10:35:22;;;;;;;2.53;0.70;;;19.70;99.90;;;;;;5027620;28;20595;-76
2022/04/06 10:37:56;;;;;;;2.53;1.10;;;19.50;99.80;;;;;;5030773;28;20741;-75
2022/04/06 10:40:23;;;;;;;1.83;0.63;;;19.40;99.90;;;;;;5031029;28;20584;-76
2022/04/06 10:42:49;;;;;;;2.80;1.53;;;19.20;99.90;;;;;;5030493;28;20725;-77
2022/04/06 10:45:24;;;;;;;3.17;1.53;;;19.10;99.90;;;;;;5031026;28;20627;-76
2022/04/06 10:48:29;;;;;;;3.90;1.10;;;18.90;99.80;;;;;;5031112;28;20655;-76
2022/04/06 10:51:30;;;;;;;4.50;2.30;;;18.80;99.90;;;;;;4969926;28;20631;-76
2022/04/06 10:53:56;;;;;;;2.23;1.00;;;18.60;99.80;;;;;;4953996;28;20586;-76
2022/04/06 10:56:23;;;;;;;4.73;1.20;;;18.50;99.90;;;;;;5006408;28;20668;-76
2022/04/06 10:58:58;;;;;;;1.90;1.00;;;18.40;99.90;;;;;;5030680;28;20634;-76
2022/04/06 11:01:31;;;;;;;3.20;1.00;;;18.20;99.40;;;;;;5029824;28;20643;-76
2022/04/06 11:04:05;;;;;;;3.00;2.07;;;18.20;99.80;;;;;;5029178;28;20619;-78
2022/04/06 11:06:44;;;;;;;1.90;0.80;;;18.10;99.90;;;;;;5031138;28;20557;-76
2022/04/06 11:12:19;;;;;;;1.73;0.77;;;18.10;99.90;;;;;;5030260;28;20607;-76
2022/04/06 11:15:08;;;;;;;2.03;0.63;;;18.20;99.80;;;;;;5030298;28;20564;-76
2022/04/06 11:17:37;;;;;;;1.77;0.60;;;18.20;99.90;;;;;;5022622;28;20592;-76
2022/04/06 11:20:14;;;;;;;1.57;0.60;;;18.40;99.90;;;;;;5029744;28;20571;-75
2022/04/06 11:22:50;;;;;;;4.80;0.93;;;18.40;99.90;;;;;;5028541;28;21191;-76
2022/04/06 11:25:20;;;;;;;2.57;0.60;;;18.50;99.90;;;;;;5033404;28;21186;-76
2022/04/06 11:27:47;;;;;;;3.50;0.80;;;18.60;99.90;;;;;;5034018;28;20687;-76
2022/04/06 11:30:15;;;;;;;1.40;0.60;;;18.70;99.90;;;;;;5033856;28;20572;-76
2022/04/06 11:32:43;;;;;;;2.50;0.60;;;18.70;99.90;;;;;;5033070;28;20615;-76
2022/04/06 11:35:10;;;;;;;1.50;0.50;;;18.70;99.90;;;;;;5034440;28;20598;-76
2022/04/06 11:37:55;;;;;;;1.40;0.50;;;18.60;99.60;;;;;;5032984;28;20565;-76
2022/04/06 11:40:23;;;;;;;2.30;0.60;;;18.50;99.00;;;;;;5032890;28;20622;-75
2022/04/06 11:43:00;;;;;;;1.50;0.53;;;18.50;99.30;;;;;;5014270;28;20667;-76
2022/04/06 11:45:28;;;;;;;1.70;0.70;;;18.40;98.90;;;;;;5014392;28;20626;-75
2022/04/06 11:47:58;;;;;;;1.53;0.50;;;18.20;98.70;;;;;;5019299;28;20628;-75
2022/04/06 11:50:35;;;;;;;1.33;0.50;;;18.10;98.60;;;;;;5029305;28;20646;-76
2022/04/06 11:53:02;;;;;;;1.40;0.50;;;18.00;98.00;;;;;;5032729;28;20608;-75
2022/04/06 11:55:44;;;;;;;1.37;0.40;;;17.90;98.30;;;;;;5030284;28;20623;-75
2022/04/06 11:58:10;;;;;;;1.93;0.50;;;17.80;98.20;;;;;;5032118;28;20930;-76
2022/04/06 12:00:36;;;;;;;1.60;0.60;;;17.70;98.70;;;;;;5033519;28;20595;-76
2022/04/06 12:03:04;;;;;;;2.23;0.60;;;17.50;98.60;;;;;;5033403;28;20255;-76
2022/04/06 12:05:33;;;;;;;1.83;0.70;;;17.40;98.50;;;;;;5033301;28;20251;-76
2022/04/06 12:08:13;;;;;;;3.67;0.60;;;17.30;98.60;;;;;;5033054;28;20576;-76
2022/04/06 12:10:58;;;;;;;2.13;0.70;;;17.20;98.40;;;;;;5031810;28;20580;-75
2022/04/06 12:13:29;;;;;;;2.70;1.13;;;17.20;98.60;;;;;;5033671;28;20611;-75
2022/04/06 12:15:56;;;;;;;1.77;0.60;;;17.10;98.70;;;;;;5031931;28;20576;-75
2022/04/06 12:18:23;;;;;;;2.03;0.70;;;17.00;98.80;;;;;;5033315;28;20568;-76
2022/04/06 12:20:50;;;;;;;3.30;0.70;;;16.90;98.80;;;;;;5032164;28;20588;-76
2022/04/06 12:23:20;;;;;;;3.20;0.60;;;16.80;98.90;;;;;;5033286;28;20624;-75
2022/04/06 12:25:47;;;;;;;2.13;0.70;;;16.70;98.80;;;;;;5031851;28;20632;-75
2022/04/06 12:28:24;;;;;;;1.80;0.50;;;16.60;99.10;;;;;;5031784;28;20596;-76
2022/04/06 12:30:58;;;;;;;1.60;0.70;;;16.60;98.90;;;;;;5032013;28;21017;-76
2022/04/06 12:33:40;;;;;;;1.73;0.53;;;16.50;99.10;;;;;;5032600;28;20612;-75
2022/04/06 12:36:21;;;;;;;4.60;2.00;;;16.40;99.00;;;;;;5033273;28;20572;-76
2022/04/06 12:39:10;;;;;;;1.50;0.70;;;16.40;99.40;;;;;;5013396;28;21152;-76
2022/04/06 12:42:02;;;;;;;1.30;0.60;;;16.40;99.20;;;;;;5013626;28;20601;-76
2022/04/06 12:44:32;;;;;;;1.20;0.53;;;16.30;99.10;;;;;;5011966;28;20652;-76
2022/04/06 12:46:59;;;;;;;3.50;0.63;;;16.30;99.40;;;;;;5012455;28;20581;-76
2022/04/06 12:49:36;;;;;;;1.40;0.67;;;16.30;99.70;;;;;;5011904;28;20572;-76
2022/04/06 12:52:15;;;;;;;1.60;0.60;;;16.30;99.60;;;;;;5012174;28;20604;-76
2022/04/06 12:54:43;;;;;;;1.87;0.83;;;16.30;99.60;;;;;;5019529;28;21222;-76
2022/04/06 12:57:14;;;;;;;3.33;0.60;;;16.30;99.80;;;;;;5031749;28;20580;-76
2022/04/06 12:59:46;;;;;;;2.13;0.60;;;16.30;99.80;;;;;;5032784;28;20692;-75
2022/04/06 13:02:26;;;;;;;5.53;0.77;;;16.30;99.80;;;;;;5032548;28;20601;-75
2022/04/06 13:04:54;;;;;;;1.53;0.53;;;16.20;99.70;;;;;;5031551;28;21094;-76